Time;durP1;ratioP1;P1;durP2;ratioP2;P2;SDS_P1;SDS_P2;PMS_P1;PMS_P2;Temp;Humidity;BMP_temperature;BMP_pressure;BME280_temperature;BME280_humidity;BME280_pressure;Samples;Min_cycle;Max_cycle;Signal;HPM_P1;HPM_P2
2022/05/14 00:00:17;;;;;;;;;3.00;3.00;;;;;16.61;50.12;101682.16;4906306;28;46084;-76
2022/05/14 00:02:42;;;;;;;;;3.00;3.00;;;;;16.53;50.52;101690.72;4901564;28;45683;-76
2022/05/14 00:05:08;;;;;;;;;3.00;2.50;;;;;16.55;50.56;101690.63;4906129;28;45631;-77
2022/05/14 00:07:33;;;;;;;;;3.75;3.75;;;;;16.54;50.40;101680.81;4902569;28;45541;-77
2022/05/14 00:09:59;;;;;;;;;3.00;3.00;;;;;16.55;50.19;101683.44;4907898;28;45816;-79
2022/05/14 00:15:16;;;;;;;;;4.25;2.50;;;;;16.27;51.05;101688.88;4839285;29;45525;-79
2022/05/14 00:17:42;;;;;;;;;2.00;2.00;;;;;16.33;50.80;101688.47;4840031;29;45546;-79
2022/05/14 00:20:08;;;;;;;;;4.25;2.75;;;;;16.36;50.72;101693.66;4838298;29;46321;-79
2022/05/14 00:22:34;;;;;;;;;5.25;4.00;;;;;16.35;50.78;101681.19;4839254;29;45488;-79
2022/05/14 00:24:59;;;;;;;;;5.25;4.00;;;;;16.39;50.17;101682.72;4842832;29;45559;-79
2022/05/14 00:27:25;;;;;;;;;3.75;3.75;;;;;16.41;50.35;101680.78;4837088;29;45543;-80
2022/05/14 00:29:50;;;;;;;;;4.50;4.00;;;;;16.45;50.62;101697.56;4838917;29;45394;-80
2022/05/14 00:32:16;;;;;;;;;2.75;2.00;;;;;16.39;50.60;101686.25;4823958;29;45520;-80
2022/05/14 00:34:41;;;;;;;;;3.75;3.75;;;;;16.32;50.96;101693.00;4854502;29;45325;-80
2022/05/14 00:37:06;;;;;;;;;4.00;3.25;;;;;16.31;50.99;101687.72;4877933;29;50464;-80
2022/05/14 00:39:32;;;;;;;;;2.25;2.00;;;;;16.22;50.73;101672.19;4876762;29;45691;-80
2022/05/14 00:41:57;;;;;;;;;5.25;4.00;;;;;16.35;50.77;101678.47;4876636;29;45497;-80
2022/05/14 00:44:22;;;;;;;;;4.00;4.00;;;;;16.29;50.92;101676.22;4877225;29;45505;-80
2022/05/14 00:47:02;;;;;;;;;4.25;4.25;;;;;16.37;51.18;101690.00;4877056;29;45946;-80
2022/05/14 00:49:31;;;;;;;;;5.00;3.00;;;;;16.31;51.11;101676.97;4876917;29;45526;-81
2022/05/14 00:51:59;;;;;;;;;6.75;3.75;;;;;16.31;51.35;101679.66;4916815;28;45453;-80
2022/05/14 00:54:34;;;;;;;;;5.00;5.00;;;;;16.27;51.43;101684.38;4964031;28;45612;-80
2022/05/14 00:57:05;;;;;;;;;4.50;3.50;;;;;16.14;51.50;101670.88;4966799;28;45614;-80
2022/05/14 00:59:31;;;;;;;;;3.75;3.75;;;;;16.12;51.71;101667.41;4972309;28;46252;-80
2022/05/14 01:01:58;;;;;;;;;4.50;4.00;;;;;16.13;51.90;101669.13;4970117;28;45374;-80
2022/05/14 01:04:26;;;;;;;;;5.00;5.00;;;;;16.07;52.22;101672.22;4975736;28;45338;-79
2022/05/14 01:07:01;;;;;;;;;3.25;3.25;;;;;16.06;52.31;101678.53;4988455;28;45844;-79
2022/05/14 01:09:27;;;;;;;;;4.00;4.00;;;;;16.02;52.41;101677.03;4975062;28;45403;-80
2022/05/14 01:11:54;;;;;;;;;6.00;6.00;;;;;15.94;52.81;101672.13;4973155;28;45485;-79
2022/05/14 01:14:21;;;;;;;;;6.00;6.00;;;;;15.92;52.59;101670.50;4974949;28;45386;-78
2022/05/14 01:16:46;;;;;;;;;6.50;5.50;;;;;15.83;52.82;101668.44;4972712;28;45400;-78
2022/05/14 01:19:12;;;;;;;;;3.75;3.75;;;;;15.85;52.78;101667.38;4975625;28;46034;-80
2022/05/14 01:21:59;;;;;;;;;3.75;3.75;;;;;15.84;52.98;101668.31;4973129;28;45376;-79
2022/05/14 01:27:25;;;;;;;;;5.00;4.00;;;;;15.69;53.44;101654.00;4969349;28;45615;-77
2022/05/14 01:29:50;;;;;;;;;5.00;4.50;;;;;15.61;53.53;101650.97;4973365;28;47102;-79
2022/05/14 01:32:16;;;;;;;;;3.50;3.50;;;;;15.67;53.96;101671.19;4974334;28;45310;-79
2022/05/14 01:34:43;;;;;;;;;6.50;4.00;;;;;15.64;53.85;101672.22;4989838;28;45566;-80
2022/05/14 01:37:10;;;;;;;;;4.75;4.50;;;;;15.60;54.18;101670.69;4973780;28;45436;-81
2022/05/14 01:39:36;;;;;;;;;7.00;4.00;;;;;15.44;54.22;101646.66;4970363;28;45450;-80
2022/05/14 01:42:01;;;;;;;;;4.00;3.75;;;;;15.48;54.46;101664.25;4972848;28;45502;-79
2022/05/14 01:44:27;;;;;;;;;5.00;4.25;;;;;15.35;54.81;101641.84;4972562;28;45428;-80
2022/05/14 01:46:52;;;;;;;;;6.25;6.00;;;;;15.40;55.19;101661.19;4974656;28;45402;-79
2022/05/14 01:49:18;;;;;;;;;5.00;3.50;;;;;15.28;55.01;101646.72;4975197;28;46147;-80
2022/05/14 01:51:43;;;;;;;;;4.00;4.00;;;;;15.33;55.30;101659.84;4969157;28;45357;-80
2022/05/14 01:54:09;;;;;;;;;5.00;3.25;;;;;15.26;55.29;101648.63;4973886;28;45397;-79
2022/05/14 01:56:34;;;;;;;;;5.00;4.50;;;;;15.24;54.92;101645.16;4971807;28;45500;-79
2022/05/14 01:59:00;;;;;;;;;5.50;5.00;;;;;15.24;55.23;101647.00;4973381;28;45556;-79
2022/05/14 02:01:32;;;;;;;;;5.50;5.50;;;;;15.18;55.33;101642.88;4969501;28;45442;-79
2022/05/14 02:04:01;;;;;;;;;4.50;4.50;;;;;15.19;55.22;101649.97;4974933;28;45477;-79
2022/05/14 02:06:28;;;;;;;;;3.50;3.00;;;;;15.08;55.35;101644.38;4974086;28;45449;-79
2022/05/14 02:08:54;;;;;;;;;3.50;3.50;;;;;15.07;55.44;101640.84;4967552;28;45493;-79
2022/05/14 02:11:21;;;;;;;;;4.75;3.50;;;;;15.03;55.49;101646.47;4974220;28;45776;-79
2022/05/14 02:13:47;;;;;;;;;3.50;3.50;;;;;14.98;55.51;101645.88;4967790;28;45418;-79
2022/05/14 02:16:13;;;;;;;;;3.00;3.00;;;;;15.00;55.75;101650.19;4968168;28;45362;-79
2022/05/14 02:18:38;;;;;;;;;4.00;4.00;;;;;14.98;55.28;101649.44;4966579;28;47082;-79
2022/05/14 02:21:05;;;;;;;;;3.00;2.75;;;;;14.92;55.44;101641.78;4972645;28;45439;-80
2022/05/14 02:23:32;;;;;;;;;4.00;4.00;;;;;14.93;55.55;101656.88;4973289;28;46491;-80
2022/05/14 02:25:58;;;;;;;;;5.75;3.00;;;;;14.91;55.81;101648.06;4972143;28;45565;-80
2022/05/14 02:28:23;;;;;;;;;5.00;4.00;;;;;14.87;55.59;101649.22;4967898;28;45425;-80
2022/05/14 02:30:49;;;;;;;;;4.50;4.00;;;;;14.74;55.95;101624.94;4984650;28;45589;-80
2022/05/14 02:33:15;;;;;;;;;7.00;5.75;;;;;14.83;56.07;101643.16;4972664;28;45971;-80
2022/05/14 02:35:41;;;;;;;;;6.25;4.75;;;;;14.83;56.09;101651.22;4973625;28;45543;-80
2022/05/14 02:38:07;;;;;;;;;4.00;4.00;;;;;14.81;55.82;101649.56;4973243;28;45445;-80
2022/05/14 02:40:33;;;;;;;;;3.75;3.00;;;;;14.73;55.84;101636.63;4966338;28;46190;-80
2022/05/14 02:42:58;;;;;;;;;3.00;3.00;;;;;14.69;55.86;101632.41;4964825;28;46155;-80
2022/05/14 02:45:24;;;;;;;;;2.75;2.25;;;;;14.70;56.19;101645.72;4971567;28;45666;-80
2022/05/14 02:47:49;;;;;;;;;6.50;3.50;;;;;14.66;56.09;101646.84;4969088;28;45613;-80
2022/05/14 02:50:16;;;;;;;;;4.50;4.50;;;;;14.65;56.28;101652.31;4965448;28;56034;-80
2022/05/14 02:52:41;;;;;;;;;4.00;4.00;;;;;14.61;56.62;101653.44;4966853;28;45541;-78
2022/05/14 02:55:08;;;;;;;;;5.00;5.00;;;;;14.62;56.41;101660.50;4988027;28;45512;-78
2022/05/14 02:57:34;;;;;;;;;5.50;5.50;;;;;14.58;56.71;101661.66;4971237;28;46254;-78
2022/05/14 03:00:00;;;;;;;;;4.00;3.00;;;;;14.51;56.72;101647.72;4973331;28;45549;-78
2022/05/14 03:02:25;;;;;;;;;3.25;2.00;;;;;14.46;56.57;101650.66;4971592;28;45348;-78
2022/05/14 03:04:51;;;;;;;;;3.75;3.75;;;;;14.51;56.84;101655.75;4971469;28;45444;-78
2022/05/14 03:07:17;;;;;;;;;4.25;3.75;;;;;14.47;57.06;101648.84;4967530;28;45481;-78
2022/05/14 03:09:43;;;;;;;;;5.00;4.00;;;;;14.43;56.77;101647.28;4973239;28;45499;-78
2022/05/14 03:12:11;;;;;;;;;4.00;4.00;;;;;14.45;57.26;101656.97;4972216;28;45600;-78
2022/05/14 03:14:37;;;;;;;;;4.00;4.00;;;;;14.44;57.25;101659.75;4973017;28;45406;-79
2022/05/14 03:17:04;;;;;;;;;4.00;3.00;;;;;14.37;57.41;101647.66;4972924;28;46755;-78
2022/05/14 03:19:29;;;;;;;;;6.00;4.25;;;;;14.41;57.16;101654.56;4968635;28;46167;-79
2022/05/14 03:21:55;;;;;;;;;7.00;4.50;;;;;14.38;57.54;101655.63;4973356;28;45282;-79
2022/05/14 03:24:20;;;;;;;;;7.00;4.00;;;;;14.27;57.54;101631.25;4965181;28;45987;-79
2022/05/14 03:26:45;;;;;;;;;0.00;0.00;;;;;14.38;57.77;101649.38;4972213;28;45952;-79
2022/05/14 03:29:11;;;;;;;;;5.00;5.00;;;;;14.37;57.85;101653.00;4971633;28;45484;-79
2022/05/14 03:31:40;;;;;;;;;5.00;4.00;;;;;14.34;57.92;101648.69;4973215;28;45634;-79
2022/05/14 03:34:06;;;;;;;;;3.75;3.00;;;;;14.31;57.68;101651.56;4971723;28;45463;-79
2022/05/14 03:36:31;;;;;;;;;4.00;4.00;;;;;14.28;57.85;101652.56;4972303;28;45534;-79
2022/05/14 03:38:56;;;;;;;;;7.75;5.00;;;;;14.23;57.92;101637.72;4976105;28;45613;-80
2022/05/14 03:41:22;;;;;;;;;6.25;4.25;;;;;14.27;58.03;101645.50;4976206;28;45515;-80
2022/05/14 03:43:49;;;;;;;;;3.50;3.50;;;;;14.22;57.72;101638.69;4985203;28;45612;-81
2022/05/14 03:46:14;;;;;;;;;5.00;5.00;;;;;14.23;58.21;101638.59;4965699;28;46052;-80
2022/05/14 03:48:40;;;;;;;;;5.50;4.00;;;;;14.26;57.96;101650.94;4975977;28;45828;-80
2022/05/14 03:51:07;;;;;;;;;4.50;4.50;;;;;14.16;58.09;101631.00;4971160;28;45538;-80
2022/05/14 03:53:33;;;;;;;;;4.25;3.75;;;;;14.20;58.15;101652.16;4976492;28;45576;-79
2022/05/14 03:55:58;;;;;;;;;3.00;3.00;;;;;14.16;58.41;101649.75;4973090;28;46974;-79
2022/05/14 03:58:24;;;;;;;;;3.00;3.00;;;;;14.24;58.22;101660.91;4969407;28;45406;-79
2022/05/14 04:00:50;;;;;;;;;3.00;3.00;;;;;14.19;58.16;101649.56;4975972;28;45428;-79
2022/05/14 04:03:15;;;;;;;;;5.00;5.00;;;;;14.14;58.35;101644.50;4973657;28;46112;-79
2022/05/14 04:05:41;;;;;;;;;3.00;3.00;;;;;14.12;58.24;101653.53;4973829;28;45984;-79
2022/05/14 04:08:07;;;;;;;;;4.50;4.50;;;;;14.09;58.23;101643.00;4962186;28;45408;-79
2022/05/14 04:10:32;;;;;;;;;4.00;3.75;;;;;14.12;58.30;101646.38;4989624;28;45400;-79
2022/05/14 04:12:59;;;;;;;;;4.00;3.00;;;;;14.14;58.14;101651.63;4977262;28;45584;-79
2022/05/14 04:15:25;;;;;;;;;3.50;3.50;;;;;14.02;58.25;101629.97;4973663;28;46299;-78
2022/05/14 04:17:51;;;;;;;;;2.00;2.00;;;;;14.12;58.17;101646.38;4973735;28;45345;-78
2022/05/14 04:20:17;;;;;;;;;3.00;3.00;;;;;14.09;58.23;101651.88;4973670;28;45665;-79
2022/05/14 04:22:43;;;;;;;;;5.25;4.50;;;;;13.88;58.54;101611.16;4975207;28;45557;-79
2022/05/14 04:25:10;;;;;;;;;3.00;3.00;;;;;14.02;58.36;101648.72;4988313;28;46201;-79
2022/05/14 04:27:36;;;;;;;;;3.25;3.00;;;;;13.96;58.61;101635.66;4973992;28;45343;-79
2022/05/14 04:30:02;;;;;;;;;3.00;1.75;;;;;13.96;58.55;101651.72;4973921;28;45592;-78
2022/05/14 04:32:27;;;;;;;;;5.50;3.25;;;;;13.95;58.56;101649.13;4973731;28;45258;-79
2022/05/14 04:34:53;;;;;;;;;6.50;5.00;;;;;13.98;58.47;101649.81;4973799;28;45450;-79
2022/05/14 04:37:18;;;;;;;;;5.00;4.75;;;;;14.01;58.85;101654.16;4977553;28;45531;-80
2022/05/14 04:39:43;;;;;;;;;4.00;3.50;;;;;13.95;58.85;101641.09;4973650;28;45523;-81
2022/05/14 04:42:10;;;;;;;;;6.00;3.75;;;;;14.02;58.80;101656.75;4980960;28;45564;-80
2022/05/14 04:44:38;;;;;;;;;3.00;3.00;;;;;13.96;58.63;101645.50;4985809;28;46413;-80
2022/05/14 04:47:04;;;;;;;;;3.00;3.00;;;;;14.01;58.80;101646.97;4975860;28;45235;-80
2022/05/14 04:49:30;;;;;;;;;4.00;4.00;;;;;13.90;58.96;101640.47;4992272;28;45325;-80
2022/05/14 04:51:56;;;;;;;;;3.00;3.00;;;;;14.00;59.09;101658.63;4996490;28;45578;-80
2022/05/14 04:54:23;;;;;;;;;6.00;3.75;;;;;13.98;59.05;101657.00;4980837;28;45512;-80
2022/05/14 04:56:48;;;;;;;;;5.75;5.00;;;;;13.90;59.36;101638.66;4980799;28;45476;-81
2022/05/14 04:59:14;;;;;;;;;5.00;5.00;;;;;13.96;59.61;101646.38;4980452;28;45389;-80
2022/05/14 05:03:16;;;;;;;;;5.00;5.00;;;;;13.99;59.39;101648.88;4984675;28;45314;-80
2022/05/14 05:04:31;;;;;;;;;4.50;4.50;;;;;14.07;59.72;101668.06;4993055;28;45816;-81
2022/05/14 05:06:56;;;;;;;;;3.00;3.00;;;;;14.10;59.43;101659.00;4980894;28;45453;-80
2022/05/14 05:09:21;;;;;;;;;3.50;3.50;;;;;14.13;59.51;101668.66;4980331;28;45437;-80
2022/05/14 05:11:50;;;;;;;;;4.25;4.25;;;;;14.16;59.39;101668.47;4980430;28;45341;-80
2022/05/14 05:14:16;;;;;;;;;5.25;4.50;;;;;14.16;59.57;101669.34;4979633;28;45543;-80
2022/05/14 05:16:41;;;;;;;;;3.25;3.25;;;;;14.12;59.53;101658.88;4976915;28;45469;-79
2022/05/14 05:19:06;;;;;;;;;3.00;3.00;;;;;14.11;59.46;101651.81;4979802;28;46488;-80
2022/05/14 05:21:32;;;;;;;;;5.75;5.00;;;;;14.10;59.24;101647.41;4980309;28;45452;-81
2022/05/14 05:23:57;;;;;;;;;5.00;5.00;;;;;14.12;59.46;101649.06;4980157;28;50758;-80
2022/05/14 05:26:22;;;;;;;;;3.00;3.00;;;;;14.19;59.25;101661.16;4980313;28;45405;-80
2022/05/14 05:28:48;;;;;;;;;5.00;5.00;;;;;14.19;59.52;101662.94;4975935;28;53663;-81
2022/05/14 05:31:14;;;;;;;;;7.00;5.00;;;;;14.24;59.79;101661.75;4979407;28;45704;-80
2022/05/14 05:33:39;;;;;;;;;4.00;2.00;;;;;14.32;59.39;101672.03;4980178;28;45436;-80
2022/05/14 05:36:06;;;;;;;;;4.50;3.75;;;;;14.38;59.33;101677.06;4995351;28;45377;-80
2022/05/14 05:38:32;;;;;;;;;3.75;3.75;;;;;14.41;59.03;101671.50;4980417;28;45401;-80
2022/05/14 05:40:58;;;;;;;;;3.75;3.25;;;;;14.42;59.30;101664.31;4991944;28;45558;-80
2022/05/14 05:43:23;;;;;;;;;4.00;4.00;;;;;14.34;58.94;101637.13;4994752;28;48235;-80
2022/05/14 05:45:49;;;;;;;;;7.00;6.00;;;;;14.52;59.12;101659.31;4980161;28;45540;-80
2022/05/14 05:48:15;;;;;;;;;5.50;5.00;;;;;14.43;58.66;101642.81;4980170;28;45464;-80
2022/05/14 05:50:40;;;;;;;;;5.75;5.50;;;;;14.66;58.77;101667.44;4980371;28;45528;-80
2022/05/14 05:53:06;;;;;;;;;4.50;4.50;;;;;14.70;58.18;101671.66;4978016;28;46351;-78
2022/05/14 05:58:17;;;;;;;;;5.25;4.75;;;;;14.73;57.42;101655.41;4979748;28;45479;-80
2022/05/14 06:00:43;;;;;;;;;5.50;4.00;;;;;14.82;57.57;101668.25;4981530;28;45563;-80
2022/05/14 06:03:08;;;;;;;;;5.50;4.50;;;;;14.85;57.05;101681.47;4985391;28;50097;-80
2022/05/14 06:05:34;;;;;;;;;2.75;2.75;;;;;14.95;56.77;101679.13;4985845;28;45323;-79
2022/05/14 06:07:59;;;;;;;;;3.50;2.00;;;;;14.96;56.57;101680.84;4975951;28;45582;-79
2022/05/14 06:10:25;;;;;;;;;6.25;4.00;;;;;15.03;56.13;101684.91;4978586;28;45437;-79
2022/05/14 06:12:51;;;;;;;;;3.50;3.50;;;;;15.04;56.12;101685.75;4979190;28;45440;-79
2022/05/14 06:15:19;;;;;;;;;4.00;4.00;;;;;15.08;55.54;101695.31;4979121;28;46104;-79
2022/05/14 06:17:44;;;;;;;;;3.00;3.00;;;;;15.12;55.53;101696.88;4987289;28;45381;-79
2022/05/14 06:20:13;;;;;;;;;3.75;2.75;;;;;15.16;55.50;101690.38;4977868;28;45243;-80
2022/05/14 06:22:39;;;;;;;;;4.50;4.00;;;;;15.16;55.69;101686.84;4974799;28;46585;-80
2022/05/14 06:25:06;;;;;;;;;3.50;3.50;;;;;15.22;55.05;101690.00;4980062;28;45355;-79
2022/05/14 06:27:32;;;;;;;;;5.25;3.25;;;;;15.09;54.76;101665.75;4979513;28;45662;-79
2022/05/14 06:29:58;;;;;;;;;4.50;3.00;;;;;15.30;54.78;101689.56;4978252;28;45317;-80
2022/05/14 06:32:23;;;;;;;;;3.00;3.00;;;;;15.27;54.80;101684.34;4976479;28;46430;-79
2022/05/14 06:34:48;;;;;;;;;7.00;4.25;;;;;15.34;55.49;101699.13;4975215;28;45467;-81
2022/05/14 06:37:14;;;;;;;;;3.75;3.00;;;;;15.27;55.58;101685.25;4979930;28;45373;-80
2022/05/14 06:39:40;;;;;;;;;6.00;4.50;;;;;15.23;54.56;101674.78;4969353;28;45476;-83
2022/05/14 06:42:06;;;;;;;;;5.50;3.25;;;;;15.42;54.92;101698.69;4993206;28;47395;-82
2022/05/14 06:44:32;;;;;;;;;4.25;3.25;;;;;15.40;55.32;101697.91;4989070;28;45448;-80
2022/05/14 06:46:58;;;;;;;;;2.00;2.00;;;;;15.38;54.89;101698.00;4979721;28;45826;-80
2022/05/14 06:49:23;;;;;;;;;3.75;3.00;;;;;15.39;55.34;101704.22;4982370;28;45464;-79
2022/05/14 06:51:52;;;;;;;;;2.00;2.00;;;;;15.31;55.39;101699.31;4977664;28;46187;-79
2022/05/14 06:54:20;;;;;;;;;4.00;2.00;;;;;15.41;55.35;101703.16;4982804;28;45599;-78
2022/05/14 06:56:46;;;;;;;;;5.00;5.00;;;;;15.48;55.60;101707.19;4974202;28;45625;-79
2022/05/14 06:59:14;;;;;;;;;4.00;4.00;;;;;15.55;55.30;101702.31;4976885;28;45333;-79
2022/05/14 07:01:42;;;;;;;;;3.00;3.00;;;;;15.56;55.54;101706.72;4979994;28;47009;-78
2022/05/14 07:06:55;;;;;;;;;4.00;4.00;;;;;15.64;55.17;101693.72;4974351;28;45412;-79
2022/05/14 07:09:27;;;;;;;;;4.75;3.00;;;;;15.62;55.47;101684.88;4976279;28;45575;-78
2022/05/14 07:11:56;;;;;;;;;2.75;2.75;;;;;15.73;55.55;101703.06;4978387;28;46418;-79
2022/05/14 07:14:23;;;;;;;;;2.00;2.00;;;;;15.79;54.90;101699.97;4970545;28;45373;-78
2022/05/14 07:16:49;;;;;;;;;3.00;3.00;;;;;15.74;55.47;101688.66;4977663;28;45505;-79
2022/05/14 07:19:14;;;;;;;;;2.50;2.50;;;;;15.89;54.32;101711.84;4982966;28;45282;-79
2022/05/14 07:21:42;;;;;;;;;2.25;2.25;;;;;15.95;54.18;101703.41;4987037;28;45396;-79
2022/05/14 07:24:12;;;;;;;;;2.00;2.00;;;;;15.86;54.46;101677.16;4979269;28;45364;-78
2022/05/14 07:26:39;;;;;;;;;3.25;3.25;;;;;16.03;54.02;101700.25;4977431;28;45651;-79
2022/05/14 07:29:07;;;;;;;;;4.00;3.00;;;;;16.08;54.01;101698.13;4974231;28;45537;-78
2022/05/14 07:31:34;;;;;;;;;6.00;4.50;;;;;16.05;53.15;101698.31;4979984;28;46204;-78
2022/05/14 07:33:59;;;;;;;;;3.00;3.00;;;;;16.11;53.83;101694.38;4981288;28;45458;-78
2022/05/14 07:36:27;;;;;;;;;2.75;2.75;;;;;16.05;53.22;101676.84;4981892;28;45476;-79
2022/05/14 07:38:58;;;;;;;;;2.50;2.50;;;;;16.08;53.54;101668.56;4981932;28;45651;-79
2022/05/14 07:41:25;;;;;;;;;3.50;3.50;;;;;16.29;53.28;101681.59;4993404;28;47125;-79
2022/05/14 07:43:54;;;;;;;;;3.50;3.50;;;;;16.17;52.94;101672.50;4976176;28;45484;-78
2022/05/14 07:46:26;;;;;;;;;5.00;3.00;;;;;16.31;53.08;101693.09;4988473;28;45503;-79
2022/05/14 07:48:53;;;;;;;;;4.25;2.75;;;;;16.38;52.51;101684.53;4985834;28;46032;-79
2022/05/14 07:51:19;;;;;;;;;4.50;4.00;;;;;16.43;53.18;101684.25;4980834;28;46089;-78
2022/05/14 07:53:46;;;;;;;;;3.25;3.25;;;;;16.35;52.30;101671.28;4978031;28;45451;-79
2022/05/14 07:56:12;;;;;;;;;4.50;3.00;;;;;16.32;52.64;101655.38;4977692;28;45381;-79
2022/05/14 07:58:40;;;;;;;;;3.50;3.25;;;;;16.55;52.86;101683.44;4978232;28;45543;-79
2022/05/14 08:01:06;;;;;;;;;5.00;5.00;;;;;16.55;52.68;101669.13;4976708;28;47420;-79
2022/05/14 08:03:32;;;;;;;;;6.50;4.00;;;;;16.69;52.15;101677.13;4981009;28;45595;-79
2022/05/14 08:05:58;;;;;;;;;4.50;3.75;;;;;16.69;52.40;101677.13;4979463;28;45688;-79
2022/05/14 08:08:23;;;;;;;;;3.00;3.00;;;;;16.66;52.45;101663.03;4981475;28;45524;-79
2022/05/14 08:10:49;;;;;;;;;5.00;3.50;;;;;16.82;51.84;101672.69;4988108;28;47707;-79
2022/05/14 08:13:19;;;;;;;;;2.00;2.00;;;;;16.91;51.76;101673.00;5005950;28;45567;-80
2022/05/14 08:15:46;;;;;;;;;2.50;2.00;;;;;17.09;51.61;101678.97;4976898;28;45386;-79
2022/05/14 08:18:13;;;;;;;;;3.25;3.25;;;;;17.16;51.06;101674.91;4978364;28;45522;-78
2022/05/14 08:20:39;;;;;;;;;3.75;2.00;;;;;17.23;50.38;101676.19;4992358;28;47114;-78
2022/05/14 08:25:57;;;;;;;;;3.00;3.00;;;;;17.38;50.77;101672.44;4962125;28;45306;-78
2022/05/14 08:28:23;;;;;;;;;4.50;2.50;;;;;17.35;50.42;101659.19;4980209;28;45512;-78
2022/05/14 08:30:48;;;;;;;;;3.75;2.75;;;;;17.47;50.29;101665.53;4978237;28;46781;-78
2022/05/14 08:33:13;;;;;;;;;1.25;1.25;;;;;17.59;49.86;101671.91;4976418;28;45359;-78
2022/05/14 08:35:39;;;;;;;;;1.25;1.25;;;;;17.54;49.88;101644.44;4981408;28;45576;-78
2022/05/14 08:38:08;;;;;;;;;3.25;2.75;;;;;17.72;49.49;101670.03;4977477;28;45320;-79
2022/05/14 08:40:40;;;;;;;;;2.50;2.50;;;;;17.71;49.57;101659.41;4977329;28;46178;-79
2022/05/14 08:43:16;;;;;;;;;2.50;1.75;;;;;17.90;49.44;101661.66;4976019;28;47114;-79
2022/05/14 08:45:42;;;;;;;;;1.25;0.75;;;;;17.94;48.65;101658.59;4980786;28;45243;-78
2022/05/14 08:48:36;;;;;;;;;3.50;3.00;;;;;17.98;48.09;101664.66;4978455;28;45512;-78
2022/05/14 08:51:16;;;;;;;;;2.50;2.50;;;;;17.99;49.10;101650.19;4978990;28;45594;-79
2022/05/14 08:53:45;;;;;;;;;5.00;1.75;;;;;18.09;48.12;101648.56;4975912;28;45393;-79
2022/05/14 08:56:16;;;;;;;;;1.50;1.50;;;;;18.16;48.13;101660.63;4979123;28;45435;-78
2022/05/14 08:58:44;;;;;;;;;2.25;2.00;;;;;18.28;48.77;101653.47;4976780;28;45515;-78
2022/05/14 09:01:15;;;;;;;;;2.75;2.75;;;;;18.31;47.78;101656.78;4981118;28;45485;-78
2022/05/14 09:03:44;;;;;;;;;1.25;1.25;;;;;18.25;47.53;101653.69;4980111;28;45472;-78
2022/05/14 09:06:10;;;;;;;;;2.00;2.00;;;;;18.30;48.15;101644.28;4986018;28;45495;-78
2022/05/14 09:08:35;;;;;;;;;3.00;3.00;;;;;18.46;48.34;101644.00;4989667;28;45693;-78
2022/05/14 09:11:10;;;;;;;;;5.00;3.00;;;;;18.66;47.97;101663.19;4977503;28;46513;-78
2022/05/14 09:13:46;;;;;;;;;2.00;2.00;;;;;18.72;46.77;101641.16;4976077;28;45420;-78
2022/05/14 09:16:35;;;;;;;;;4.50;3.00;;;;;18.87;46.77;101661.59;4980999;28;45401;-78
2022/05/14 09:19:12;;;;;;;;;3.25;3.00;;;;;18.91;46.38;101637.97;4977885;28;45507;-78
2022/05/14 09:21:38;;;;;;;;;1.25;1.25;;;;;19.13;46.17;101646.09;4979874;28;45540;-78
2022/05/14 09:24:24;;;;;;;;;2.50;2.50;;;;;19.22;45.63;101657.16;4973974;28;45572;-78
2022/05/14 09:26:51;;;;;;;;;3.25;2.25;;;;;19.16;44.79;101637.75;4979661;28;45451;-79
2022/05/14 09:29:32;;;;;;;;;3.00;3.00;;;;;19.13;44.99;101642.56;4978994;28;45334;-79
2022/05/14 09:32:00;;;;;;;;;2.00;2.00;;;;;19.25;44.93;101657.78;4974876;28;46276;-79
2022/05/14 09:34:28;;;;;;;;;3.00;3.00;;;;;19.32;44.84;101647.38;4980786;28;45531;-78
2022/05/14 09:37:01;;;;;;;;;4.25;2.00;;;;;19.36;45.02;101644.31;4976773;28;45541;-78
2022/05/14 09:39:28;;;;;;;;;2.25;2.25;;;;;19.39;44.55;101631.56;4978914;28;47165;-79
2022/05/14 09:41:56;;;;;;;;;3.25;3.25;;;;;19.45;43.75;101639.16;4978706;28;47056;-79
2022/05/14 09:44:28;;;;;;;;;1.00;1.00;;;;;19.52;44.43;101635.84;4977531;28;45495;-79
2022/05/14 09:47:10;;;;;;;;;3.00;3.00;;;;;19.50;43.70;101620.75;4974927;28;45574;-79
2022/05/14 09:49:41;;;;;;;;;3.25;2.50;;;;;19.55;43.84;101635.63;4976507;28;45382;-79
2022/05/14 09:52:10;;;;;;;;;4.25;3.00;;;;;19.54;43.88;101628.47;4978673;28;45423;-79
2022/05/14 09:54:48;;;;;;;;;3.25;3.25;;;;;19.49;44.16;101610.94;4974699;28;45560;-78
2022/05/14 09:57:17;;;;;;;;;4.00;4.00;;;;;19.61;43.52;101617.19;4978883;28;45429;-78
2022/05/14 10:00:05;;;;;;;;;7.00;4.00;;;;;19.66;43.40;101612.28;4978559;28;46452;-78
2022/05/14 10:02:48;;;;;;;;;4.00;2.75;;;;;19.70;43.66;101617.34;4979150;28;46664;-78
2022/05/14 10:05:50;;;;;;;;;4.50;3.00;;;;;19.70;42.44;101611.06;4978161;28;45366;-78
2022/05/14 10:08:32;;;;;;;;;3.50;1.50;;;;;19.76;43.07;101607.88;4978223;28;45346;-78
2022/05/14 10:11:06;;;;;;;;;2.00;2.00;;;;;19.85;42.99;101609.84;4959620;28;45576;-78
2022/05/14 10:13:49;;;;;;;;;2.00;2.00;;;;;19.97;43.00;101610.69;4976933;28;48038;-78
2022/05/14 10:16:39;;;;;;;;;3.00;1.50;;;;;20.09;43.29;101592.59;4978227;28;45929;-78
2022/05/14 10:19:04;;;;;;;;;3.25;3.25;;;;;20.17;41.78;101595.50;4976934;28;45439;-77
2022/05/14 10:21:37;;;;;;;;;4.00;2.25;;;;;20.09;42.28;101582.63;4979096;28;45356;-77
2022/05/14 10:27:12;;;;;;;;;2.75;2.75;;;;;20.45;41.94;101590.50;4979381;28;45434;-78
2022/05/14 10:29:41;;;;;;;;;2.00;2.00;;;;;20.54;42.71;101595.09;4977957;28;45370;-77
2022/05/14 10:32:09;;;;;;;;;3.00;3.00;;;;;20.63;41.92;101587.09;4977397;28;45511;-78
2022/05/14 10:35:04;;;;;;;;;2.00;2.00;;;;;20.70;41.74;101597.41;4975586;28;48371;-78
2022/05/14 10:37:35;;;;;;;;;2.75;2.00;;;;;20.88;42.15;101578.72;4972754;28;45631;-78
2022/05/14 10:40:16;;;;;;;;;2.00;2.00;;;;;21.02;41.97;101578.38;4976143;28;45416;-77
2022/05/14 10:42:54;;;;;;;;;3.00;3.00;;;;;21.28;40.69;101592.34;4978207;28;45441;-77
2022/05/14 10:45:23;;;;;;;;;2.75;2.75;;;;;21.36;41.32;101570.88;4980165;28;45420;-78
2022/05/14 10:48:00;;;;;;;;;3.00;3.00;;;;;21.52;40.53;101586.66;4982205;28;45468;-78
2022/05/14 10:50:29;;;;;;;;;5.50;3.00;;;;;21.56;39.67;101585.38;4982115;28;45552;-78
2022/05/14 10:52:56;;;;;;;;;2.00;2.00;;;;;21.56;39.50;101574.56;4977164;28;45437;-78
2022/05/14 10:55:32;;;;;;;;;2.50;2.50;;;;;21.57;39.76;101572.69;4981855;28;45462;-78
2022/05/14 10:58:03;;;;;;;;;2.00;2.00;;;;;21.68;39.15;101569.88;4982503;28;45296;-78
2022/05/14 11:00:28;;;;;;;;;3.00;3.00;;;;;21.86;39.90;101578.19;4980591;28;45500;-78
2022/05/14 11:03:02;;;;;;;;;4.00;4.00;;;;;22.05;40.10;101583.66;4981771;28;45399;-77
2022/05/14 11:05:47;;;;;;;;;3.00;3.00;;;;;22.21;39.35;101572.28;4981442;28;45619;-78
2022/05/14 11:08:26;;;;;;;;;4.50;4.25;;;;;22.35;38.16;101562.03;4980818;28;45526;-77
2022/05/14 11:11:08;;;;;;;;;3.75;3.75;;;;;22.24;37.63;101565.72;4962663;28;45491;-77
2022/05/14 11:13:34;;;;;;;;;4.25;4.25;;;;;22.30;38.21;101567.88;4979531;28;45373;-77
2022/05/14 11:16:13;;;;;;;;;2.00;2.00;;;;;22.43;38.66;101552.16;4982070;28;45439;-77
2022/05/14 11:18:52;;;;;;;;;3.25;3.25;;;;;22.78;38.66;101572.41;4980194;28;45591;-76
2022/05/14 11:21:22;;;;;;;;;2.75;2.75;;;;;22.96;37.87;101554.34;4981996;28;45405;-76
2022/05/14 11:23:50;;;;;;;;;6.00;4.00;;;;;23.11;37.73;101552.06;4981397;28;45474;-76
2022/05/14 11:26:17;;;;;;;;;2.50;2.00;;;;;23.28;36.92;101558.59;4979761;28;45980;-77
2022/05/14 11:28:44;;;;;;;;;6.50;3.50;;;;;23.32;36.16;101546.41;4977908;28;45358;-75
2022/05/14 11:31:18;;;;;;;;;2.00;2.00;;;;;23.17;36.50;101547.91;4982543;28;45413;-77
2022/05/14 11:33:45;;;;;;;;;2.00;2.00;;;;;23.31;36.65;101539.28;4980763;28;45500;-81
2022/05/14 11:36:10;;;;;;;;;2.00;2.00;;;;;23.50;36.02;101548.31;4973963;28;46663;-78
2022/05/14 11:38:40;;;;;;;;;3.00;2.75;;;;;23.59;35.83;101545.56;4980989;28;45383;-78
2022/05/14 11:41:12;;;;;;;;;2.00;2.00;;;;;23.73;35.23;101541.50;4979461;28;45390;-77
2022/05/14 11:43:43;;;;;;;;;2.50;2.50;;;;;23.81;34.34;101536.16;4981452;28;45315;-78
2022/05/14 11:46:09;;;;;;;;;3.00;3.00;;;;;23.81;34.36;101536.16;4977975;28;45623;-78